sensor_id;sensor_type;location;lat;lon;timestamp;P1;durP1;ratioP1;P2;durP2;ratioP2
3379;SDS011;1703;51.964;7.642;2023-02-03T00:01:43;28.33;;;18.33;;
3379;SDS011;1703;51.964;7.642;2023-02-03T00:04:10;25.20;;;17.63;;
3379;SDS011;1703;51.964;7.642;2023-02-03T00:06:38;25.70;;;18.30;;
3379;SDS011;1703;51.964;7.642;2023-02-03T00:09:05;32.03;;;19.07;;
3379;SDS011;1703;51.964;7.642;2023-02-03T00:11:32;25.97;;;16.87;;
3379;SDS011;1703;51.964;7.642;2023-02-03T00:13:59;21.97;;;16.00;;
3379;SDS011;1703;51.964;7.642;2023-02-03T00:16:26;25.23;;;16.60;;
3379;SDS011;1703;51.964;7.642;2023-02-03T00:18:52;30.13;;;19.30;;
3379;SDS011;1703;51.964;7.642;2023-02-03T00:21:19;21.73;;;17.40;;
3379;SDS011;1703;51.964;7.642;2023-02-03T00:23:47;24.37;;;17.57;;
3379;SDS011;1703;51.964;7.642;2023-02-03T00:26:15;23.90;;;16.00;;
3379;SDS011;1703;51.964;7.642;2023-02-03T00:28:43;26.90;;;16.90;;
3379;SDS011;1703;51.964;7.642;2023-02-03T00:31:14;33.20;;;17.47;;
3379;SDS011;1703;51.964;7.642;2023-02-03T00:33:41;25.87;;;17.47;;
3379;SDS011;1703;51.964;7.642;2023-02-03T00:36:08;23.30;;;16.90;;
3379;SDS011;1703;51.964;7.642;2023-02-03T00:38:36;23.93;;;16.90;;
3379;SDS011;1703;51.964;7.642;2023-02-03T00:41:04;28.80;;;17.57;;
3379;SDS011;1703;51.964;7.642;2023-02-03T00:43:31;32.57;;;17.73;;
3379;SDS011;1703;51.964;7.642;2023-02-03T00:45:58;23.57;;;17.20;;
3379;SDS011;1703;51.964;7.642;2023-02-03T00:48:25;32.17;;;17.27;;
3379;SDS011;1703;51.964;7.642;2023-02-03T00:50:51;32.20;;;17.53;;
3379;SDS011;1703;51.964;7.642;2023-02-03T00:53:18;28.57;;;16.30;;
3379;SDS011;1703;51.964;7.642;2023-02-03T00:55:45;26.13;;;18.07;;
3379;SDS011;1703;51.964;7.642;2023-02-03T00:58:13;23.33;;;15.77;;
3379;SDS011;1703;51.964;7.642;2023-02-03T01:00:40;27.53;;;16.30;;
3379;SDS011;1703;51.964;7.642;2023-02-03T01:03:07;31.60;;;17.57;;
3379;SDS011;1703;51.964;7.642;2023-02-03T01:05:34;17.80;;;15.70;;
3379;SDS011;1703;51.964;7.642;2023-02-03T01:08:01;32.20;;;17.03;;
3379;SDS011;1703;51.964;7.642;2023-02-03T01:10:28;27.83;;;16.80;;
3379;SDS011;1703;51.964;7.642;2023-02-03T01:12:55;27.90;;;19.03;;
3379;SDS011;1703;51.964;7.642;2023-02-03T01:15:23;27.23;;;16.40;;
3379;SDS011;1703;51.964;7.642;2023-02-03T01:17:50;29.90;;;14.03;;
3379;SDS011;1703;51.964;7.642;2023-02-03T01:20:17;22.70;;;15.03;;
3379;SDS011;1703;51.964;7.642;2023-02-03T01:22:45;29.27;;;16.70;;
3379;SDS011;1703;51.964;7.642;2023-02-03T01:25:13;25.50;;;15.67;;
3379;SDS011;1703;51.964;7.642;2023-02-03T01:27:41;21.37;;;15.13;;
3379;SDS011;1703;51.964;7.642;2023-02-03T01:30:08;22.83;;;16.53;;
3379;SDS011;1703;51.964;7.642;2023-02-03T01:32:37;24.97;;;14.50;;
3379;SDS011;1703;51.964;7.642;2023-02-03T01:35:04;24.30;;;15.37;;
3379;SDS011;1703;51.964;7.642;2023-02-03T01:37:31;21.93;;;14.83;;
3379;SDS011;1703;51.964;7.642;2023-02-03T01:39:58;31.63;;;16.00;;
3379;SDS011;1703;51.964;7.642;2023-02-03T01:42:25;24.90;;;15.07;;
3379;SDS011;1703;51.964;7.642;2023-02-03T01:44:52;21.10;;;14.70;;
3379;SDS011;1703;51.964;7.642;2023-02-03T01:47:22;24.23;;;16.10;;
3379;SDS011;1703;51.964;7.642;2023-02-03T01:49:56;21.60;;;13.77;;
3379;SDS011;1703;51.964;7.642;2023-02-03T01:52:27;18.83;;;13.87;;
3379;SDS011;1703;51.964;7.642;2023-02-03T01:54:56;21.73;;;14.47;;
3379;SDS011;1703;51.964;7.642;2023-02-03T01:57:26;27.27;;;14.13;;
3379;SDS011;1703;51.964;7.642;2023-02-03T01:59:57;38.03;;;15.50;;
3379;SDS011;1703;51.964;7.642;2023-02-03T02:02:26;27.60;;;14.77;;
3379;SDS011;1703;51.964;7.642;2023-02-03T02:04:57;18.23;;;13.80;;
3379;SDS011;1703;51.964;7.642;2023-02-03T02:07:29;28.13;;;13.20;;
3379;SDS011;1703;51.964;7.642;2023-02-03T02:09:57;19.60;;;12.73;;
3379;SDS011;1703;51.964;7.642;2023-02-03T02:12:25;22.20;;;13.00;;
3379;SDS011;1703;51.964;7.642;2023-02-03T02:14:52;15.47;;;11.03;;
3379;SDS011;1703;51.964;7.642;2023-02-03T02:17:33;17.93;;;11.97;;
3379;SDS011;1703;51.964;7.642;2023-02-03T02:20:18;31.20;;;14.57;;
3379;SDS011;1703;51.964;7.642;2023-02-03T02:23:10;20.13;;;12.40;;
3379;SDS011;1703;51.964;7.642;2023-02-03T02:26:16;22.73;;;12.97;;
3379;SDS011;1703;51.964;7.642;2023-02-03T02:32:04;27.63;;;11.60;;
3379;SDS011;1703;51.964;7.642;2023-02-03T02:34:38;17.83;;;11.70;;
3379;SDS011;1703;51.964;7.642;2023-02-03T02:37:15;17.80;;;10.23;;
3379;SDS011;1703;51.964;7.642;2023-02-03T02:39:52;18.80;;;10.13;;
3379;SDS011;1703;51.964;7.642;2023-02-03T02:42:25;14.90;;;10.87;;
3379;SDS011;1703;51.964;7.642;2023-02-03T02:45:02;19.93;;;11.33;;
3379;SDS011;1703;51.964;7.642;2023-02-03T02:47:36;29.73;;;10.77;;
3379;SDS011;1703;51.964;7.642;2023-02-03T02:50:06;19.60;;;11.30;;
3379;SDS011;1703;51.964;7.642;2023-02-03T02:52:38;21.10;;;10.00;;
3379;SDS011;1703;51.964;7.642;2023-02-03T02:55:09;17.10;;;11.00;;
3379;SDS011;1703;51.964;7.642;2023-02-03T02:57:40;19.20;;;11.30;;
3379;SDS011;1703;51.964;7.642;2023-02-03T03:00:08;17.90;;;10.20;;
3379;SDS011;1703;51.964;7.642;2023-02-03T03:02:38;22.53;;;10.37;;
3379;SDS011;1703;51.964;7.642;2023-02-03T03:05:06;14.20;;;8.80;;
3379;SDS011;1703;51.964;7.642;2023-02-03T03:07:44;16.27;;;9.20;;
3379;SDS011;1703;51.964;7.642;2023-02-03T03:10:15;18.27;;;11.27;;
3379;SDS011;1703;51.964;7.642;2023-02-03T03:12:49;23.63;;;9.00;;
3379;SDS011;1703;51.964;7.642;2023-02-03T03:15:20;16.50;;;8.80;;
3379;SDS011;1703;51.964;7.642;2023-02-03T03:17:53;18.63;;;9.33;;
3379;SDS011;1703;51.964;7.642;2023-02-03T03:20:24;19.37;;;7.50;;
3379;SDS011;1703;51.964;7.642;2023-02-03T03:22:54;15.50;;;8.57;;
3379;SDS011;1703;51.964;7.642;2023-02-03T03:25:25;23.37;;;9.13;;
3379;SDS011;1703;51.964;7.642;2023-02-03T03:27:57;18.30;;;8.60;;
3379;SDS011;1703;51.964;7.642;2023-02-03T03:30:28;16.03;;;8.27;;
3379;SDS011;1703;51.964;7.642;2023-02-03T03:32:59;20.67;;;8.90;;
3379;SDS011;1703;51.964;7.642;2023-02-03T03:35:27;12.73;;;7.60;;
3379;SDS011;1703;51.964;7.642;2023-02-03T03:38:03;17.37;;;8.50;;
3379;SDS011;1703;51.964;7.642;2023-02-03T03:40:36;17.33;;;8.37;;
3379;SDS011;1703;51.964;7.642;2023-02-03T03:43:07;22.07;;;8.30;;
3379;SDS011;1703;51.964;7.642;2023-02-03T03:45:41;16.20;;;7.60;;
3379;SDS011;1703;51.964;7.642;2023-02-03T03:48:15;14.80;;;7.77;;
3379;SDS011;1703;51.964;7.642;2023-02-03T03:50:46;11.13;;;8.50;;
3379;SDS011;1703;51.964;7.642;2023-02-03T03:53:17;12.73;;;6.73;;
3379;SDS011;1703;51.964;7.642;2023-02-03T03:55:46;13.17;;;6.97;;
3379;SDS011;1703;51.964;7.642;2023-02-03T03:58:15;19.50;;;7.37;;
3379;SDS011;1703;51.964;7.642;2023-02-03T04:00:46;12.37;;;7.13;;
3379;SDS011;1703;51.964;7.642;2023-02-03T04:03:16;20.13;;;8.00;;
3379;SDS011;1703;51.964;7.642;2023-02-03T04:05:47;19.83;;;6.07;;
3379;SDS011;1703;51.964;7.642;2023-02-03T04:08:13;24.80;;;8.03;;
3379;SDS011;1703;51.964;7.642;2023-02-03T04:10:41;10.57;;;6.87;;
3379;SDS011;1703;51.964;7.642;2023-02-03T04:13:09;17.97;;;7.57;;
3379;SDS011;1703;51.964;7.642;2023-02-03T04:15:37;22.83;;;7.13;;
3379;SDS011;1703;51.964;7.642;2023-02-03T04:18:04;12.97;;;6.63;;
3379;SDS011;1703;51.964;7.642;2023-02-03T04:20:32;10.33;;;6.23;;
3379;SDS011;1703;51.964;7.642;2023-02-03T04:22:59;11.37;;;6.43;;
3379;SDS011;1703;51.964;7.642;2023-02-03T04:25:26;16.67;;;6.17;;
3379;SDS011;1703;51.964;7.642;2023-02-03T04:27:53;8.20;;;6.30;;
3379;SDS011;1703;51.964;7.642;2023-02-03T04:30:20;7.97;;;5.77;;
3379;SDS011;1703;51.964;7.642;2023-02-03T04:32:47;14.33;;;6.60;;
3379;SDS011;1703;51.964;7.642;2023-02-03T04:35:14;15.20;;;6.20;;
3379;SDS011;1703;51.964;7.642;2023-02-03T04:37:43;14.23;;;5.40;;
3379;SDS011;1703;51.964;7.642;2023-02-03T04:40:10;8.80;;;4.50;;
3379;SDS011;1703;51.964;7.642;2023-02-03T04:42:38;7.77;;;4.90;;
3379;SDS011;1703;51.964;7.642;2023-02-03T04:45:06;12.70;;;5.17;;
3379;SDS011;1703;51.964;7.642;2023-02-03T04:47:35;7.60;;;5.30;;
3379;SDS011;1703;51.964;7.642;2023-02-03T04:50:02;13.10;;;6.00;;
3379;SDS011;1703;51.964;7.642;2023-02-03T04:52:29;14.47;;;5.10;;
3379;SDS011;1703;51.964;7.642;2023-02-03T04:54:57;16.50;;;4.87;;
3379;SDS011;1703;51.964;7.642;2023-02-03T04:57:24;6.50;;;4.20;;
3379;SDS011;1703;51.964;7.642;2023-02-03T04:59:51;6.83;;;4.20;;
3379;SDS011;1703;51.964;7.642;2023-02-03T05:02:17;6.80;;;4.10;;
3379;SDS011;1703;51.964;7.642;2023-02-03T05:04:44;8.00;;;4.43;;
3379;SDS011;1703;51.964;7.642;2023-02-03T05:07:11;14.80;;;4.50;;
3379;SDS011;1703;51.964;7.642;2023-02-03T05:09:38;6.60;;;3.80;;
3379;SDS011;1703;51.964;7.642;2023-02-03T05:12:06;7.03;;;4.13;;
3379;SDS011;1703;51.964;7.642;2023-02-03T05:14:33;13.53;;;4.50;;
3379;SDS011;1703;51.964;7.642;2023-02-03T05:17:00;3.90;;;3.37;;
3379;SDS011;1703;51.964;7.642;2023-02-03T05:19:26;4.57;;;3.90;;
3379;SDS011;1703;51.964;7.642;2023-02-03T05:21:53;5.50;;;3.13;;
3379;SDS011;1703;51.964;7.642;2023-02-03T05:24:20;7.10;;;3.53;;
3379;SDS011;1703;51.964;7.642;2023-02-03T05:26:47;4.70;;;3.43;;
3379;SDS011;1703;51.964;7.642;2023-02-03T05:29:15;9.07;;;4.67;;
3379;SDS011;1703;51.964;7.642;2023-02-03T05:31:41;4.47;;;2.77;;
3379;SDS011;1703;51.964;7.642;2023-02-03T05:34:08;8.73;;;3.97;;
3379;SDS011;1703;51.964;7.642;2023-02-03T05:36:35;15.40;;;3.67;;
3379;SDS011;1703;51.964;7.642;2023-02-03T05:39:02;6.90;;;2.53;;
3379;SDS011;1703;51.964;7.642;2023-02-03T05:41:29;7.13;;;3.80;;
3379;SDS011;1703;51.964;7.642;2023-02-03T05:44:14;12.73;;;3.80;;
3379;SDS011;1703;51.964;7.642;2023-02-03T05:46:41;10.67;;;3.67;;
3379;SDS011;1703;51.964;7.642;2023-02-03T05:49:08;11.50;;;3.90;;
3379;SDS011;1703;51.964;7.642;2023-02-03T05:51:34;9.23;;;4.33;;
3379;SDS011;1703;51.964;7.642;2023-02-03T05:54:01;8.33;;;3.30;;
3379;SDS011;1703;51.964;7.642;2023-02-03T05:56:28;11.40;;;3.47;;
3379;SDS011;1703;51.964;7.642;2023-02-03T05:58:55;10.83;;;5.27;;
3379;SDS011;1703;51.964;7.642;2023-02-03T06:01:23;11.47;;;3.50;;
3379;SDS011;1703;51.964;7.642;2023-02-03T06:03:50;5.10;;;3.30;;
3379;SDS011;1703;51.964;7.642;2023-02-03T06:06:20;9.50;;;4.00;;
3379;SDS011;1703;51.964;7.642;2023-02-03T06:08:47;15.63;;;3.83;;
3379;SDS011;1703;51.964;7.642;2023-02-03T06:11:16;10.80;;;3.47;;
3379;SDS011;1703;51.964;7.642;2023-02-03T06:13:43;7.20;;;2.97;;
3379;SDS011;1703;51.964;7.642;2023-02-03T06:16:10;5.63;;;2.83;;
3379;SDS011;1703;51.964;7.642;2023-02-03T06:18:38;10.73;;;3.90;;
3379;SDS011;1703;51.964;7.642;2023-02-03T06:21:05;9.03;;;3.80;;
3379;SDS011;1703;51.964;7.642;2023-02-03T06:23:31;13.30;;;3.53;;
3379;SDS011;1703;51.964;7.642;2023-02-03T06:25:58;10.07;;;4.03;;
3379;SDS011;1703;51.964;7.642;2023-02-03T06:28:25;8.97;;;4.30;;
3379;SDS011;1703;51.964;7.642;2023-02-03T06:30:52;6.90;;;3.23;;
3379;SDS011;1703;51.964;7.642;2023-02-03T06:33:19;17.50;;;3.77;;
3379;SDS011;1703;51.964;7.642;2023-02-03T06:35:47;13.27;;;5.40;;
3379;SDS011;1703;51.964;7.642;2023-02-03T06:38:14;5.77;;;4.20;;
3379;SDS011;1703;51.964;7.642;2023-02-03T06:40:41;9.27;;;3.80;;
3379;SDS011;1703;51.964;7.642;2023-02-03T06:43:07;12.50;;;3.70;;
3379;SDS011;1703;51.964;7.642;2023-02-03T06:45:34;11.53;;;4.00;;
3379;SDS011;1703;51.964;7.642;2023-02-03T06:48:01;11.43;;;3.97;;
3379;SDS011;1703;51.964;7.642;2023-02-03T06:50:28;11.37;;;4.33;;
3379;SDS011;1703;51.964;7.642;2023-02-03T06:52:56;6.07;;;3.20;;
3379;SDS011;1703;51.964;7.642;2023-02-03T06:55:23;9.10;;;3.67;;
3379;SDS011;1703;51.964;7.642;2023-02-03T06:57:49;14.00;;;3.40;;
3379;SDS011;1703;51.964;7.642;2023-02-03T07:00:17;10.87;;;3.97;;
3379;SDS011;1703;51.964;7.642;2023-02-03T07:02:49;6.60;;;3.60;;
3379;SDS011;1703;51.964;7.642;2023-02-03T07:05:18;10.93;;;4.80;;
3379;SDS011;1703;51.964;7.642;2023-02-03T07:07:45;8.27;;;3.60;;
3379;SDS011;1703;51.964;7.642;2023-02-03T07:10:14;5.17;;;3.17;;
3379;SDS011;1703;51.964;7.642;2023-02-03T07:12:41;13.17;;;3.60;;
3379;SDS011;1703;51.964;7.642;2023-02-03T07:15:09;11.40;;;3.90;;
3379;SDS011;1703;51.964;7.642;2023-02-03T07:17:36;9.87;;;4.33;;
3379;SDS011;1703;51.964;7.642;2023-02-03T07:20:03;11.50;;;3.77;;
3379;SDS011;1703;51.964;7.642;2023-02-03T07:22:31;10.60;;;4.80;;
3379;SDS011;1703;51.964;7.642;2023-02-03T07:24:57;12.30;;;4.97;;
3379;SDS011;1703;51.964;7.642;2023-02-03T07:27:26;7.43;;;4.33;;
3379;SDS011;1703;51.964;7.642;2023-02-03T07:29:53;8.63;;;4.00;;
3379;SDS011;1703;51.964;7.642;2023-02-03T07:32:20;9.90;;;5.50;;
3379;SDS011;1703;51.964;7.642;2023-02-03T07:34:47;21.20;;;5.47;;
3379;SDS011;1703;51.964;7.642;2023-02-03T07:37:14;14.13;;;5.30;;
3379;SDS011;1703;51.964;7.642;2023-02-03T07:39:40;7.00;;;4.93;;
3379;SDS011;1703;51.964;7.642;2023-02-03T07:42:07;8.63;;;4.30;;
3379;SDS011;1703;51.964;7.642;2023-02-03T07:44:38;5.33;;;4.33;;
3379;SDS011;1703;51.964;7.642;2023-02-03T07:47:05;17.77;;;6.53;;
3379;SDS011;1703;51.964;7.642;2023-02-03T07:49:32;13.27;;;5.37;;
3379;SDS011;1703;51.964;7.642;2023-02-03T07:51:58;9.43;;;5.40;;
3379;SDS011;1703;51.964;7.642;2023-02-03T07:54:25;11.13;;;4.70;;
3379;SDS011;1703;51.964;7.642;2023-02-03T07:56:52;11.13;;;5.60;;
3379;SDS011;1703;51.964;7.642;2023-02-03T07:59:19;15.63;;;5.37;;
3379;SDS011;1703;51.964;7.642;2023-02-03T08:01:47;16.70;;;6.90;;
3379;SDS011;1703;51.964;7.642;2023-02-03T08:04:14;8.03;;;5.07;;
3379;SDS011;1703;51.964;7.642;2023-02-03T08:06:41;9.47;;;5.60;;
3379;SDS011;1703;51.964;7.642;2023-02-03T08:09:08;10.30;;;5.30;;
3379;SDS011;1703;51.964;7.642;2023-02-03T08:11:35;12.37;;;6.20;;
3379;SDS011;1703;51.964;7.642;2023-02-03T08:14:01;12.90;;;5.63;;
3379;SDS011;1703;51.964;7.642;2023-02-03T08:16:28;13.97;;;6.27;;
3379;SDS011;1703;51.964;7.642;2023-02-03T08:18:56;9.77;;;5.33;;
3379;SDS011;1703;51.964;7.642;2023-02-03T08:21:23;7.40;;;4.43;;
3379;SDS011;1703;51.964;7.642;2023-02-03T08:23:50;15.27;;;4.77;;
3379;SDS011;1703;51.964;7.642;2023-02-03T08:26:17;9.80;;;6.00;;
3379;SDS011;1703;51.964;7.642;2023-02-03T08:28:46;7.13;;;5.07;;
3379;SDS011;1703;51.964;7.642;2023-02-03T08:31:13;7.80;;;4.70;;
3379;SDS011;1703;51.964;7.642;2023-02-03T08:33:41;11.03;;;5.93;;
3379;SDS011;1703;51.964;7.642;2023-02-03T08:36:09;13.33;;;5.20;;
3379;SDS011;1703;51.964;7.642;2023-02-03T08:38:36;20.30;;;6.07;;
3379;SDS011;1703;51.964;7.642;2023-02-03T08:41:07;6.57;;;5.60;;
3379;SDS011;1703;51.964;7.642;2023-02-03T08:43:35;12.43;;;6.83;;
3379;SDS011;1703;51.964;7.642;2023-02-03T08:46:03;15.07;;;6.30;;
3379;SDS011;1703;51.964;7.642;2023-02-03T08:48:30;8.33;;;4.50;;
3379;SDS011;1703;51.964;7.642;2023-02-03T08:50:58;15.53;;;4.70;;
3379;SDS011;1703;51.964;7.642;2023-02-03T08:53:26;10.70;;;4.93;;
3379;SDS011;1703;51.964;7.642;2023-02-03T08:55:53;12.63;;;5.07;;
3379;SDS011;1703;51.964;7.642;2023-02-03T08:58:21;11.80;;;5.60;;
3379;SDS011;1703;51.964;7.642;2023-02-03T09:00:47;7.53;;;5.20;;
3379;SDS011;1703;51.964;7.642;2023-02-03T09:03:17;9.43;;;5.00;;
3379;SDS011;1703;51.964;7.642;2023-02-03T09:05:44;10.70;;;6.60;;
3379;SDS011;1703;51.964;7.642;2023-02-03T09:08:10;6.03;;;5.20;;
3379;SDS011;1703;51.964;7.642;2023-02-03T09:10:38;13.43;;;3.80;;
3379;SDS011;1703;51.964;7.642;2023-02-03T09:13:05;18.20;;;5.13;;
3379;SDS011;1703;51.964;7.642;2023-02-03T09:15:32;14.17;;;6.10;;
3379;SDS011;1703;51.964;7.642;2023-02-03T09:17:59;9.63;;;6.00;;
3379;SDS011;1703;51.964;7.642;2023-02-03T09:20:26;14.80;;;6.00;;
3379;SDS011;1703;51.964;7.642;2023-02-03T09:22:53;9.70;;;5.07;;
3379;SDS011;1703;51.964;7.642;2023-02-03T09:25:19;16.30;;;5.80;;
3379;SDS011;1703;51.964;7.642;2023-02-03T09:27:47;13.70;;;5.97;;
3379;SDS011;1703;51.964;7.642;2023-02-03T09:30:14;8.33;;;5.23;;
3379;SDS011;1703;51.964;7.642;2023-02-03T09:32:42;11.77;;;4.90;;
3379;SDS011;1703;51.964;7.642;2023-02-03T09:35:12;15.63;;;5.23;;
3379;SDS011;1703;51.964;7.642;2023-02-03T09:37:39;14.67;;;4.77;;
3379;SDS011;1703;51.964;7.642;2023-02-03T09:40:07;12.60;;;4.87;;
3379;SDS011;1703;51.964;7.642;2023-02-03T09:42:46;15.50;;;6.37;;
3379;SDS011;1703;51.964;7.642;2023-02-03T09:45:30;15.87;;;5.27;;
3379;SDS011;1703;51.964;7.642;2023-02-03T09:47:58;12.60;;;5.63;;
3379;SDS011;1703;51.964;7.642;2023-02-03T09:50:30;8.07;;;5.57;;
3379;SDS011;1703;51.964;7.642;2023-02-03T09:53:01;8.30;;;4.60;;
3379;SDS011;1703;51.964;7.642;2023-02-03T09:55:33;6.00;;;4.00;;
3379;SDS011;1703;51.964;7.642;2023-02-03T09:58:04;10.53;;;5.07;;
3379;SDS011;1703;51.964;7.642;2023-02-03T10:00:34;6.30;;;4.23;;
3379;SDS011;1703;51.964;7.642;2023-02-03T10:03:06;11.10;;;5.60;;
3379;SDS011;1703;51.964;7.642;2023-02-03T10:05:43;14.83;;;4.57;;
3379;SDS011;1703;51.964;7.642;2023-02-03T10:08:19;11.60;;;5.17;;
3379;SDS011;1703;51.964;7.642;2023-02-03T10:10:55;11.13;;;4.63;;
3379;SDS011;1703;51.964;7.642;2023-02-03T10:13:41;13.60;;;5.27;;
3379;SDS011;1703;51.964;7.642;2023-02-03T10:16:20;9.30;;;4.20;;
3379;SDS011;1703;51.964;7.642;2023-02-03T10:18:56;7.43;;;4.07;;
3379;SDS011;1703;51.964;7.642;2023-02-03T10:21:31;11.00;;;4.67;;
3379;SDS011;1703;51.964;7.642;2023-02-03T10:24:01;13.00;;;4.33;;
3379;SDS011;1703;51.964;7.642;2023-02-03T10:26:30;7.23;;;4.83;;
3379;SDS011;1703;51.964;7.642;2023-02-03T10:29:02;8.00;;;4.10;;
3379;SDS011;1703;51.964;7.642;2023-02-03T10:31:34;18.47;;;5.30;;
3379;SDS011;1703;51.964;7.642;2023-02-03T10:34:04;9.60;;;4.70;;
3379;SDS011;1703;51.964;7.642;2023-02-03T10:36:39;6.97;;;3.43;;
3379;SDS011;1703;51.964;7.642;2023-02-03T10:39:30;11.43;;;4.70;;
3379;SDS011;1703;51.964;7.642;2023-02-03T10:41:58;10.03;;;4.93;;
3379;SDS011;1703;51.964;7.642;2023-02-03T10:44:31;6.53;;;3.83;;
3379;SDS011;1703;51.964;7.642;2023-02-03T10:47:08;11.00;;;5.10;;
3379;SDS011;1703;51.964;7.642;2023-02-03T10:49:48;10.23;;;3.93;;
3379;SDS011;1703;51.964;7.642;2023-02-03T10:52:23;7.03;;;3.90;;
3379;SDS011;1703;51.964;7.642;2023-02-03T10:54:52;9.60;;;4.30;;
3379;SDS011;1703;51.964;7.642;2023-02-03T10:57:18;11.57;;;4.27;;
3379;SDS011;1703;51.964;7.642;2023-02-03T10:59:47;10.90;;;4.23;;
3379;SDS011;1703;51.964;7.642;2023-02-03T11:02:21;16.40;;;3.90;;
3379;SDS011;1703;51.964;7.642;2023-02-03T11:07:37;9.17;;;2.83;;
3379;SDS011;1703;51.964;7.642;2023-02-03T11:10:10;6.63;;;3.40;;
3379;SDS011;1703;51.964;7.642;2023-02-03T11:12:51;10.47;;;3.90;;
3379;SDS011;1703;51.964;7.642;2023-02-03T11:15:52;10.67;;;3.93;;
3379;SDS011;1703;51.964;7.642;2023-02-03T11:21:17;6.07;;;3.30;;
3379;SDS011;1703;51.964;7.642;2023-02-03T11:23:47;9.03;;;4.70;;
3379;SDS011;1703;51.964;7.642;2023-02-03T11:26:20;12.07;;;3.13;;
3379;SDS011;1703;51.964;7.642;2023-02-03T11:28:52;17.23;;;3.90;;
3379;SDS011;1703;51.964;7.642;2023-02-03T11:31:24;8.40;;;3.67;;
3379;SDS011;1703;51.964;7.642;2023-02-03T11:33:53;16.20;;;4.00;;
3379;SDS011;1703;51.964;7.642;2023-02-03T11:36:26;8.33;;;3.43;;
3379;SDS011;1703;51.964;7.642;2023-02-03T11:39:15;6.03;;;3.23;;
3379;SDS011;1703;51.964;7.642;2023-02-03T11:41:45;15.37;;;4.10;;
3379;SDS011;1703;51.964;7.642;2023-02-03T11:44:15;6.07;;;3.83;;
3379;SDS011;1703;51.964;7.642;2023-02-03T11:46:46;10.13;;;3.97;;
3379;SDS011;1703;51.964;7.642;2023-02-03T11:49:19;7.50;;;3.47;;
3379;SDS011;1703;51.964;7.642;2023-02-03T11:52:21;13.67;;;3.57;;
3379;SDS011;1703;51.964;7.642;2023-02-03T11:55:12;8.83;;;3.03;;
3379;SDS011;1703;51.964;7.642;2023-02-03T11:57:49;8.80;;;2.70;;
3379;SDS011;1703;51.964;7.642;2023-02-03T12:00:28;7.70;;;2.87;;
3379;SDS011;1703;51.964;7.642;2023-02-03T12:09:07;14.40;;;3.60;;
3379;SDS011;1703;51.964;7.642;2023-02-03T12:11:59;5.37;;;3.60;;
3379;SDS011;1703;51.964;7.642;2023-02-03T12:14:49;6.63;;;3.00;;
3379;SDS011;1703;51.964;7.642;2023-02-03T12:17:35;3.83;;;2.93;;
3379;SDS011;1703;51.964;7.642;2023-02-03T12:23:17;13.53;;;5.07;;
3379;SDS011;1703;51.964;7.642;2023-02-03T12:25:59;16.90;;;2.87;;
3379;SDS011;1703;51.964;7.642;2023-02-03T12:28:40;9.60;;;3.47;;
3379;SDS011;1703;51.964;7.642;2023-02-03T12:31:15;16.20;;;4.37;;
3379;SDS011;1703;51.964;7.642;2023-02-03T12:33:52;10.17;;;3.50;;
3379;SDS011;1703;51.964;7.642;2023-02-03T12:36:25;10.37;;;3.57;;
3379;SDS011;1703;51.964;7.642;2023-02-03T12:38:58;13.47;;;3.37;;
3379;SDS011;1703;51.964;7.642;2023-02-03T12:41:28;15.23;;;3.40;;
3379;SDS011;1703;51.964;7.642;2023-02-03T12:44:00;11.00;;;3.67;;
3379;SDS011;1703;51.964;7.642;2023-02-03T12:46:34;12.20;;;3.10;;
3379;SDS011;1703;51.964;7.642;2023-02-03T12:49:09;12.97;;;3.50;;
3379;SDS011;1703;51.964;7.642;2023-02-03T12:51:41;14.90;;;3.80;;
3379;SDS011;1703;51.964;7.642;2023-02-03T12:54:17;13.70;;;4.00;;
3379;SDS011;1703;51.964;7.642;2023-02-03T12:56:54;17.00;;;3.10;;
3379;SDS011;1703;51.964;7.642;2023-02-03T12:59:29;22.37;;;3.93;;
3379;SDS011;1703;51.964;7.642;2023-02-03T13:01:58;25.47;;;4.50;;
3379;SDS011;1703;51.964;7.642;2023-02-03T13:04:31;23.73;;;4.00;;
3379;SDS011;1703;51.964;7.642;2023-02-03T13:07:02;19.73;;;4.50;;
3379;SDS011;1703;51.964;7.642;2023-02-03T13:09:36;9.40;;;3.43;;
3379;SDS011;1703;51.964;7.642;2023-02-03T13:12:07;24.67;;;4.33;;
3379;SDS011;1703;51.964;7.642;2023-02-03T13:14:37;16.63;;;6.07;;
3379;SDS011;1703;51.964;7.642;2023-02-03T13:17:10;17.00;;;4.77;;
3379;SDS011;1703;51.964;7.642;2023-02-03T13:19:41;17.73;;;4.43;;
3379;SDS011;1703;51.964;7.642;2023-02-03T13:22:13;20.50;;;3.63;;
3379;SDS011;1703;51.964;7.642;2023-02-03T13:24:43;16.93;;;4.53;;
3379;SDS011;1703;51.964;7.642;2023-02-03T13:27:17;20.33;;;5.70;;
3379;SDS011;1703;51.964;7.642;2023-02-03T13:29:57;32.60;;;4.17;;
3379;SDS011;1703;51.964;7.642;2023-02-03T13:32:39;19.70;;;4.70;;
3379;SDS011;1703;51.964;7.642;2023-02-03T13:35:28;26.97;;;5.07;;
3379;SDS011;1703;51.964;7.642;2023-02-03T13:38:07;26.07;;;4.63;;
3379;SDS011;1703;51.964;7.642;2023-02-03T13:41:09;31.07;;;4.70;;
3379;SDS011;1703;51.964;7.642;2023-02-03T13:43:45;9.67;;;4.23;;
3379;SDS011;1703;51.964;7.642;2023-02-03T13:46:18;27.70;;;4.43;;
3379;SDS011;1703;51.964;7.642;2023-02-03T13:48:48;28.67;;;4.93;;
3379;SDS011;1703;51.964;7.642;2023-02-03T13:54:18;20.50;;;4.60;;
3379;SDS011;1703;51.964;7.642;2023-02-03T13:56:56;24.43;;;4.07;;
3379;SDS011;1703;51.964;7.642;2023-02-03T13:59:26;16.43;;;4.30;;
3379;SDS011;1703;51.964;7.642;2023-02-03T14:05:06;22.83;;;3.90;;
3379;SDS011;1703;51.964;7.642;2023-02-03T14:07:55;21.83;;;5.50;;
3379;SDS011;1703;51.964;7.642;2023-02-03T14:10:22;29.77;;;4.90;;
3379;SDS011;1703;51.964;7.642;2023-02-03T14:12:56;26.33;;;4.53;;
3379;SDS011;1703;51.964;7.642;2023-02-03T14:15:30;17.43;;;4.30;;
3379;SDS011;1703;51.964;7.642;2023-02-03T14:17:59;21.70;;;3.90;;
3379;SDS011;1703;51.964;7.642;2023-02-03T14:20:48;18.70;;;4.30;;
3379;SDS011;1703;51.964;7.642;2023-02-03T14:23:20;23.70;;;3.43;;
3379;SDS011;1703;51.964;7.642;2023-02-03T14:25:51;12.53;;;3.20;;
3379;SDS011;1703;51.964;7.642;2023-02-03T14:28:21;21.13;;;4.83;;
3379;SDS011;1703;51.964;7.642;2023-02-03T14:31:01;21.67;;;5.10;;
3379;SDS011;1703;51.964;7.642;2023-02-03T14:33:49;22.13;;;4.57;;
3379;SDS011;1703;51.964;7.642;2023-02-03T14:36:35;28.60;;;4.63;;
3379;SDS011;1703;51.964;7.642;2023-02-03T14:42:07;24.70;;;3.93;;
3379;SDS011;1703;51.964;7.642;2023-02-03T14:44:43;18.13;;;4.07;;
3379;SDS011;1703;51.964;7.642;2023-02-03T14:47:25;20.10;;;3.80;;
3379;SDS011;1703;51.964;7.642;2023-02-03T14:50:04;15.87;;;4.50;;
3379;SDS011;1703;51.964;7.642;2023-02-03T14:52:48;20.13;;;5.20;;
3379;SDS011;1703;51.964;7.642;2023-02-03T14:55:36;16.83;;;2.80;;
3379;SDS011;1703;51.964;7.642;2023-02-03T14:58:16;17.87;;;3.40;;
3379;SDS011;1703;51.964;7.642;2023-02-03T15:00:51;30.60;;;5.27;;
3379;SDS011;1703;51.964;7.642;2023-02-03T15:03:20;18.33;;;3.83;;
3379;SDS011;1703;51.964;7.642;2023-02-03T15:05:49;25.17;;;4.10;;
3379;SDS011;1703;51.964;7.642;2023-02-03T15:11:28;16.73;;;3.60;;
3379;SDS011;1703;51.964;7.642;2023-02-03T15:13:57;18.37;;;4.13;;
3379;SDS011;1703;51.964;7.642;2023-02-03T15:16:41;9.40;;;3.00;;
3379;SDS011;1703;51.964;7.642;2023-02-03T15:19:15;17.00;;;4.07;;
3379;SDS011;1703;51.964;7.642;2023-02-03T15:21:43;15.30;;;3.30;;
3379;SDS011;1703;51.964;7.642;2023-02-03T15:24:14;13.27;;;3.27;;
3379;SDS011;1703;51.964;7.642;2023-02-03T15:26:47;25.83;;;4.30;;
3379;SDS011;1703;51.964;7.642;2023-02-03T15:29:20;21.10;;;5.40;;
3379;SDS011;1703;51.964;7.642;2023-02-03T15:31:51;21.67;;;3.60;;
3379;SDS011;1703;51.964;7.642;2023-02-03T15:34:25;20.13;;;5.60;;
3379;SDS011;1703;51.964;7.642;2023-02-03T15:36:55;28.90;;;7.20;;
3379;SDS011;1703;51.964;7.642;2023-02-03T15:39:30;32.43;;;4.10;;
3379;SDS011;1703;51.964;7.642;2023-02-03T15:42:03;20.23;;;3.87;;
3379;SDS011;1703;51.964;7.642;2023-02-03T15:44:34;19.23;;;4.17;;
3379;SDS011;1703;51.964;7.642;2023-02-03T15:47:05;17.57;;;3.77;;
3379;SDS011;1703;51.964;7.642;2023-02-03T15:49:44;12.47;;;3.10;;
3379;SDS011;1703;51.964;7.642;2023-02-03T15:52:16;18.33;;;3.97;;
3379;SDS011;1703;51.964;7.642;2023-02-03T15:54:48;34.20;;;4.73;;
3379;SDS011;1703;51.964;7.642;2023-02-03T15:57:22;27.77;;;4.50;;